sensor_id;sensor_type;location;lat;lon;timestamp;temperature;humidity
15231;DHT22;32569;51.762;8.564;2023-04-01T00:02:01;10.00;99.90
15231;DHT22;32569;51.762;8.564;2023-04-01T00:04:28;10.10;99.90
15231;DHT22;32569;51.762;8.564;2023-04-01T00:06:58;10.00;99.90
15231;DHT22;32569;51.762;8.564;2023-04-01T00:09:24;10.00;99.90
15231;DHT22;32569;51.762;8.564;2023-04-01T00:11:51;10.10;99.90
15231;DHT22;32569;51.762;8.564;2023-04-01T00:14:21;10.10;99.90
15231;DHT22;32569;51.762;8.564;2023-04-01T00:16:48;10.10;99.90
15231;DHT22;32569;51.762;8.564;2023-04-01T00:19:15;10.00;99.90
15231;DHT22;32569;51.762;8.564;2023-04-01T00:21:42;10.10;99.90
15231;DHT22;32569;51.762;8.564;2023-04-01T00:24:09;10.10;99.90
15231;DHT22;32569;51.762;8.564;2023-04-01T00:26:36;10.20;99.90
15231;DHT22;32569;51.762;8.564;2023-04-01T00:29:02;10.20;99.90
15231;DHT22;32569;51.762;8.564;2023-04-01T00:31:29;10.10;99.90
15231;DHT22;32569;51.762;8.564;2023-04-01T00:33:56;10.20;99.90
15231;DHT22;32569;51.762;8.564;2023-04-01T00:36:29;10.10;99.90
15231;DHT22;32569;51.762;8.564;2023-04-01T00:38:57;10.20;99.90
15231;DHT22;32569;51.762;8.564;2023-04-01T00:41:24;10.20;99.90
15231;DHT22;32569;51.762;8.564;2023-04-01T00:44:11;10.20;99.90
15231;DHT22;32569;51.762;8.564;2023-04-01T00:46:39;10.20;99.90
15231;DHT22;32569;51.762;8.564;2023-04-01T00:49:05;10.20;99.90
15231;DHT22;32569;51.762;8.564;2023-04-01T00:51:33;10.20;99.90
15231;DHT22;32569;51.762;8.564;2023-04-01T00:54:03;10.20;99.90
15231;DHT22;32569;51.762;8.564;2023-04-01T00:56:32;10.30;99.90
15231;DHT22;32569;51.762;8.564;2023-04-01T00:59:03;10.30;99.90
15231;DHT22;32569;51.762;8.564;2023-04-01T01:01:31;10.20;99.90
15231;DHT22;32569;51.762;8.564;2023-04-01T01:04:00;10.20;99.90
15231;DHT22;32569;51.762;8.564;2023-04-01T01:06:45;10.30;99.90
15231;DHT22;32569;51.762;8.564;2023-04-01T01:09:29;10.20;99.90
15231;DHT22;32569;51.762;8.564;2023-04-01T01:12:05;10.20;99.90
15231;DHT22;32569;51.762;8.564;2023-04-01T01:14:40;10.20;99.90
15231;DHT22;32569;51.762;8.564;2023-04-01T01:17:15;10.20;99.90
15231;DHT22;32569;51.762;8.564;2023-04-01T01:25:44;10.20;99.90
15231;DHT22;32569;51.762;8.564;2023-04-01T01:28:30;10.20;99.90
15231;DHT22;32569;51.762;8.564;2023-04-01T01:31:08;10.20;99.90
15231;DHT22;32569;51.762;8.564;2023-04-01T01:33:53;10.20;99.90
15231;DHT22;32569;51.762;8.564;2023-04-01T01:36:30;10.20;99.90
15231;DHT22;32569;51.762;8.564;2023-04-01T01:39:03;10.20;99.90
15231;DHT22;32569;51.762;8.564;2023-04-01T01:41:32;10.20;99.90
15231;DHT22;32569;51.762;8.564;2023-04-01T01:44:07;10.10;99.90
15231;DHT22;32569;51.762;8.564;2023-04-01T01:46:36;10.00;99.90
15231;DHT22;32569;51.762;8.564;2023-04-01T01:49:05;10.00;99.90
15231;DHT22;32569;51.762;8.564;2023-04-01T01:51:34;10.00;99.90
15231;DHT22;32569;51.762;8.564;2023-04-01T01:54:04;9.90;99.90
15231;DHT22;32569;51.762;8.564;2023-04-01T01:56:34;10.00;99.90
15231;DHT22;32569;51.762;8.564;2023-04-01T01:59:03;10.00;99.90
15231;DHT22;32569;51.762;8.564;2023-04-01T02:01:35;10.00;99.90
15231;DHT22;32569;51.762;8.564;2023-04-01T02:04:03;10.00;99.90
15231;DHT22;32569;51.762;8.564;2023-04-01T02:06:38;9.90;99.90
15231;DHT22;32569;51.762;8.564;2023-04-01T02:09:06;9.90;99.90
15231;DHT22;32569;51.762;8.564;2023-04-01T02:11:39;10.00;99.90
15231;DHT22;32569;51.762;8.564;2023-04-01T02:14:10;10.00;99.90
15231;DHT22;32569;51.762;8.564;2023-04-01T02:16:42;10.00;99.90
15231;DHT22;32569;51.762;8.564;2023-04-01T02:19:13;9.90;99.90
15231;DHT22;32569;51.762;8.564;2023-04-01T02:21:42;10.00;99.90
15231;DHT22;32569;51.762;8.564;2023-04-01T02:24:12;10.00;99.90
15231;DHT22;32569;51.762;8.564;2023-04-01T02:26:40;10.00;99.90
15231;DHT22;32569;51.762;8.564;2023-04-01T02:29:09;10.00;99.90
15231;DHT22;32569;51.762;8.564;2023-04-01T02:31:43;10.00;99.90
15231;DHT22;32569;51.762;8.564;2023-04-01T02:34:11;10.10;99.90
15231;DHT22;32569;51.762;8.564;2023-04-01T02:36:38;10.00;99.90
15231;DHT22;32569;51.762;8.564;2023-04-01T02:39:09;10.00;99.90
15231;DHT22;32569;51.762;8.564;2023-04-01T02:41:39;10.00;99.90
15231;DHT22;32569;51.762;8.564;2023-04-01T02:44:08;10.00;99.90
15231;DHT22;32569;51.762;8.564;2023-04-01T02:46:37;10.00;99.90
15231;DHT22;32569;51.762;8.564;2023-04-01T02:49:04;10.10;99.90
15231;DHT22;32569;51.762;8.564;2023-04-01T02:51:30;10.10;99.90
15231;DHT22;32569;51.762;8.564;2023-04-01T02:54:01;10.10;99.90
15231;DHT22;32569;51.762;8.564;2023-04-01T02:56:32;10.10;99.90
15231;DHT22;32569;51.762;8.564;2023-04-01T02:59:01;10.00;99.90
15231;DHT22;32569;51.762;8.564;2023-04-01T03:01:28;10.00;99.90
15231;DHT22;32569;51.762;8.564;2023-04-01T03:03:55;10.00;99.90
15231;DHT22;32569;51.762;8.564;2023-04-01T03:06:22;10.00;99.90
15231;DHT22;32569;51.762;8.564;2023-04-01T03:08:48;10.00;99.90
15231;DHT22;32569;51.762;8.564;2023-04-01T03:11:15;9.90;99.90
15231;DHT22;32569;51.762;8.564;2023-04-01T03:13:46;9.90;99.90
15231;DHT22;32569;51.762;8.564;2023-04-01T03:16:12;10.00;99.90
15231;DHT22;32569;51.762;8.564;2023-04-01T03:18:39;10.00;99.90
15231;DHT22;32569;51.762;8.564;2023-04-01T03:21:16;10.00;99.90
15231;DHT22;32569;51.762;8.564;2023-04-01T03:23:49;9.90;99.90
15231;DHT22;32569;51.762;8.564;2023-04-01T03:26:16;9.90;99.90
15231;DHT22;32569;51.762;8.564;2023-04-01T03:28:47;9.90;99.90
15231;DHT22;32569;51.762;8.564;2023-04-01T03:31:14;9.90;99.90
15231;DHT22;32569;51.762;8.564;2023-04-01T03:33:41;9.90;99.90
15231;DHT22;32569;51.762;8.564;2023-04-01T03:36:11;9.80;99.90
15231;DHT22;32569;51.762;8.564;2023-04-01T03:38:38;9.80;99.90
15231;DHT22;32569;51.762;8.564;2023-04-01T03:41:06;9.90;99.90
15231;DHT22;32569;51.762;8.564;2023-04-01T03:43:33;9.90;99.90
15231;DHT22;32569;51.762;8.564;2023-04-01T03:46:08;9.80;99.90
15231;DHT22;32569;51.762;8.564;2023-04-01T03:48:35;9.80;99.90
15231;DHT22;32569;51.762;8.564;2023-04-01T03:51:06;9.80;99.90
15231;DHT22;32569;51.762;8.564;2023-04-01T03:53:33;9.80;99.90
15231;DHT22;32569;51.762;8.564;2023-04-01T03:56:03;9.80;99.90
15231;DHT22;32569;51.762;8.564;2023-04-01T03:58:30;9.80;99.90
15231;DHT22;32569;51.762;8.564;2023-04-01T04:00:56;9.70;99.90
15231;DHT22;32569;51.762;8.564;2023-04-01T04:03:24;9.70;99.90
15231;DHT22;32569;51.762;8.564;2023-04-01T04:05:51;9.70;99.90
15231;DHT22;32569;51.762;8.564;2023-04-01T04:08:21;9.70;99.90
15231;DHT22;32569;51.762;8.564;2023-04-01T04:10:54;9.70;99.90
15231;DHT22;32569;51.762;8.564;2023-04-01T04:13:21;9.70;99.90
15231;DHT22;32569;51.762;8.564;2023-04-01T04:15:51;9.70;99.90
15231;DHT22;32569;51.762;8.564;2023-04-01T04:18:17;9.70;99.90
15231;DHT22;32569;51.762;8.564;2023-04-01T04:20:46;9.70;99.90
15231;DHT22;32569;51.762;8.564;2023-04-01T04:23:15;9.70;99.90
15231;DHT22;32569;51.762;8.564;2023-04-01T04:25:43;9.60;99.90
15231;DHT22;32569;51.762;8.564;2023-04-01T04:28:18;9.60;99.90
15231;DHT22;32569;51.762;8.564;2023-04-01T04:30:45;9.60;99.90
15231;DHT22;32569;51.762;8.564;2023-04-01T04:33:12;9.60;99.90
15231;DHT22;32569;51.762;8.564;2023-04-01T04:35:38;9.60;99.90
15231;DHT22;32569;51.762;8.564;2023-04-01T04:38:06;9.60;99.90
15231;DHT22;32569;51.762;8.564;2023-04-01T04:40:36;9.60;99.90
15231;DHT22;32569;51.762;8.564;2023-04-01T04:43:06;9.60;99.90
15231;DHT22;32569;51.762;8.564;2023-04-01T04:45:33;9.60;99.90
15231;DHT22;32569;51.762;8.564;2023-04-01T04:47:59;9.60;99.90
15231;DHT22;32569;51.762;8.564;2023-04-01T04:50:26;9.50;99.90
15231;DHT22;32569;51.762;8.564;2023-04-01T04:52:53;9.50;99.90
15231;DHT22;32569;51.762;8.564;2023-04-01T04:55:21;9.50;99.90
15231;DHT22;32569;51.762;8.564;2023-04-01T04:57:48;9.50;99.90
15231;DHT22;32569;51.762;8.564;2023-04-01T05:00:15;9.50;99.90
15231;DHT22;32569;51.762;8.564;2023-04-01T05:02:42;9.50;99.90
15231;DHT22;32569;51.762;8.564;2023-04-01T05:05:08;9.50;99.90
15231;DHT22;32569;51.762;8.564;2023-04-01T05:07:36;9.50;99.90
15231;DHT22;32569;51.762;8.564;2023-04-01T05:10:03;9.50;99.90
15231;DHT22;32569;51.762;8.564;2023-04-01T05:12:31;9.50;99.90
15231;DHT22;32569;51.762;8.564;2023-04-01T05:15:01;9.50;99.90
15231;DHT22;32569;51.762;8.564;2023-04-01T05:17:28;9.50;99.90
15231;DHT22;32569;51.762;8.564;2023-04-01T05:19:55;9.60;99.90
15231;DHT22;32569;51.762;8.564;2023-04-01T05:22:21;9.50;99.90
15231;DHT22;32569;51.762;8.564;2023-04-01T05:24:48;9.50;99.90
15231;DHT22;32569;51.762;8.564;2023-04-01T05:27:15;9.60;99.90
15231;DHT22;32569;51.762;8.564;2023-04-01T05:29:43;9.60;99.90
15231;DHT22;32569;51.762;8.564;2023-04-01T05:32:10;9.60;99.90
15231;DHT22;32569;51.762;8.564;2023-04-01T05:34:36;9.50;99.90
15231;DHT22;32569;51.762;8.564;2023-04-01T05:37:03;9.50;99.90
15231;DHT22;32569;51.762;8.564;2023-04-01T05:39:29;9.50;99.90
15231;DHT22;32569;51.762;8.564;2023-04-01T05:41:56;9.50;99.90
15231;DHT22;32569;51.762;8.564;2023-04-01T05:44:23;9.50;99.90
15231;DHT22;32569;51.762;8.564;2023-04-01T05:46:54;9.50;99.90
15231;DHT22;32569;51.762;8.564;2023-04-01T05:49:24;9.50;99.90
15231;DHT22;32569;51.762;8.564;2023-04-01T05:51:50;9.50;99.90
15231;DHT22;32569;51.762;8.564;2023-04-01T05:54:17;9.60;99.90
15231;DHT22;32569;51.762;8.564;2023-04-01T05:56:44;9.60;99.90
15231;DHT22;32569;51.762;8.564;2023-04-01T05:59:14;9.60;99.90
15231;DHT22;32569;51.762;8.564;2023-04-01T06:01:41;9.60;99.90
15231;DHT22;32569;51.762;8.564;2023-04-01T06:04:12;9.60;99.90
15231;DHT22;32569;51.762;8.564;2023-04-01T06:06:40;9.70;99.90
15231;DHT22;32569;51.762;8.564;2023-04-01T06:09:13;9.70;99.90
15231;DHT22;32569;51.762;8.564;2023-04-01T06:11:55;9.70;99.90
15231;DHT22;32569;51.762;8.564;2023-04-01T06:14:34;9.70;99.90
15231;DHT22;32569;51.762;8.564;2023-04-01T06:17:16;9.70;99.90
15231;DHT22;32569;51.762;8.564;2023-04-01T06:19:51;9.70;99.90
15231;DHT22;32569;51.762;8.564;2023-04-01T06:25:36;9.80;99.90
15231;DHT22;32569;51.762;8.564;2023-04-01T06:28:22;9.80;99.90
15231;DHT22;32569;51.762;8.564;2023-04-01T06:31:05;9.80;99.90
15231;DHT22;32569;51.762;8.564;2023-04-01T06:33:51;9.70;99.90
15231;DHT22;32569;51.762;8.564;2023-04-01T06:36:32;9.70;99.90
15231;DHT22;32569;51.762;8.564;2023-04-01T06:42:19;9.90;99.90
15231;DHT22;32569;51.762;8.564;2023-04-01T06:44:56;9.90;99.90
15231;DHT22;32569;51.762;8.564;2023-04-01T06:47:38;9.90;99.90
15231;DHT22;32569;51.762;8.564;2023-04-01T06:50:12;9.90;99.90
15231;DHT22;32569;51.762;8.564;2023-04-01T06:52:50;9.90;99.90
15231;DHT22;32569;51.762;8.564;2023-04-01T06:55:27;9.90;99.90
15231;DHT22;32569;51.762;8.564;2023-04-01T06:58:00;9.90;99.90
15231;DHT22;32569;51.762;8.564;2023-04-01T07:00:31;10.00;99.90
15231;DHT22;32569;51.762;8.564;2023-04-01T07:03:06;10.00;99.90
15231;DHT22;32569;51.762;8.564;2023-04-01T07:05:34;10.00;99.90
15231;DHT22;32569;51.762;8.564;2023-04-01T07:08:12;10.10;99.90
15231;DHT22;32569;51.762;8.564;2023-04-01T07:10:43;10.10;99.90
15231;DHT22;32569;51.762;8.564;2023-04-01T07:13:15;10.20;99.90
15231;DHT22;32569;51.762;8.564;2023-04-01T07:15:45;10.20;99.90
15231;DHT22;32569;51.762;8.564;2023-04-01T07:18:16;10.20;99.90
15231;DHT22;32569;51.762;8.564;2023-04-01T07:20:44;10.20;99.90
15231;DHT22;32569;51.762;8.564;2023-04-01T07:23:21;10.30;99.90
15231;DHT22;32569;51.762;8.564;2023-04-01T07:25:52;10.30;99.90
15231;DHT22;32569;51.762;8.564;2023-04-01T07:28:20;10.30;99.90
15231;DHT22;32569;51.762;8.564;2023-04-01T07:30:52;10.30;99.90
15231;DHT22;32569;51.762;8.564;2023-04-01T07:33:27;10.40;99.90
15231;DHT22;32569;51.762;8.564;2023-04-01T07:36:00;10.40;99.90
15231;DHT22;32569;51.762;8.564;2023-04-01T07:38:35;10.50;99.90
15231;DHT22;32569;51.762;8.564;2023-04-01T07:41:11;10.60;99.90
15231;DHT22;32569;51.762;8.564;2023-04-01T07:43:46;10.70;99.90
15231;DHT22;32569;51.762;8.564;2023-04-01T07:46:23;10.70;99.90
15231;DHT22;32569;51.762;8.564;2023-04-01T07:49:00;10.70;99.90
15231;DHT22;32569;51.762;8.564;2023-04-01T07:51:37;10.70;99.90
15231;DHT22;32569;51.762;8.564;2023-04-01T07:54:09;10.80;99.90
15231;DHT22;32569;51.762;8.564;2023-04-01T07:56:41;10.80;99.90
15231;DHT22;32569;51.762;8.564;2023-04-01T07:59:17;10.80;99.90
15231;DHT22;32569;51.762;8.564;2023-04-01T08:01:52;10.90;99.90
15231;DHT22;32569;51.762;8.564;2023-04-01T08:04:28;10.90;99.90
15231;DHT22;32569;51.762;8.564;2023-04-01T08:07:06;10.90;99.90
15231;DHT22;32569;51.762;8.564;2023-04-01T08:09:43;11.00;99.90
15231;DHT22;32569;51.762;8.564;2023-04-01T08:12:19;11.00;99.90
15231;DHT22;32569;51.762;8.564;2023-04-01T08:14:56;11.00;99.90
15231;DHT22;32569;51.762;8.564;2023-04-01T08:17:31;11.00;99.90
15231;DHT22;32569;51.762;8.564;2023-04-01T08:20:23;11.10;99.90
15231;DHT22;32569;51.762;8.564;2023-04-01T08:22:56;11.00;99.90
15231;DHT22;32569;51.762;8.564;2023-04-01T08:25:27;11.00;99.90
15231;DHT22;32569;51.762;8.564;2023-04-01T08:27:59;11.00;99.90
15231;DHT22;32569;51.762;8.564;2023-04-01T08:30:30;11.00;99.90
15231;DHT22;32569;51.762;8.564;2023-04-01T08:33:00;11.10;99.90
15231;DHT22;32569;51.762;8.564;2023-04-01T08:35:33;11.10;99.90
15231;DHT22;32569;51.762;8.564;2023-04-01T08:38:07;11.10;99.90
15231;DHT22;32569;51.762;8.564;2023-04-01T08:41:00;11.10;99.90
15231;DHT22;32569;51.762;8.564;2023-04-01T08:43:45;11.10;99.90
15231;DHT22;32569;51.762;8.564;2023-04-01T08:46:24;11.00;99.90
15231;DHT22;32569;51.762;8.564;2023-04-01T08:49:06;11.00;99.90
15231;DHT22;32569;51.762;8.564;2023-04-01T08:51:55;11.00;99.90
15231;DHT22;32569;51.762;8.564;2023-04-01T08:54:38;11.10;99.90
15231;DHT22;32569;51.762;8.564;2023-04-01T08:57:18;11.10;99.90
15231;DHT22;32569;51.762;8.564;2023-04-01T08:59:57;11.30;99.90
15231;DHT22;32569;51.762;8.564;2023-04-01T09:02:55;11.30;99.90
15231;DHT22;32569;51.762;8.564;2023-04-01T09:05:43;11.40;99.90
15231;DHT22;32569;51.762;8.564;2023-04-01T09:08:27;11.40;99.90
15231;DHT22;32569;51.762;8.564;2023-04-01T09:11:04;11.30;99.90
15231;DHT22;32569;51.762;8.564;2023-04-01T09:14:15;11.40;99.90
15231;DHT22;32569;51.762;8.564;2023-04-01T09:17:01;11.50;99.90
15231;DHT22;32569;51.762;8.564;2023-04-01T09:19:50;11.60;99.90
15231;DHT22;32569;51.762;8.564;2023-04-01T09:22:39;11.50;99.90
15231;DHT22;32569;51.762;8.564;2023-04-01T09:25:30;11.50;99.90
15231;DHT22;32569;51.762;8.564;2023-04-01T09:28:10;11.60;99.90
15231;DHT22;32569;51.762;8.564;2023-04-01T09:30:53;11.60;99.90
15231;DHT22;32569;51.762;8.564;2023-04-01T09:33:52;11.60;99.90
15231;DHT22;32569;51.762;8.564;2023-04-01T09:36:33;11.50;99.90
15231;DHT22;32569;51.762;8.564;2023-04-01T09:39:34;11.60;99.90
15231;DHT22;32569;51.762;8.564;2023-04-01T09:42:25;11.60;99.90
15231;DHT22;32569;51.762;8.564;2023-04-01T09:44:59;11.60;99.90
15231;DHT22;32569;51.762;8.564;2023-04-01T09:47:42;11.70;99.90
15231;DHT22;32569;51.762;8.564;2023-04-01T09:50:30;11.60;99.90
15231;DHT22;32569;51.762;8.564;2023-04-01T09:53:14;11.70;99.90
15231;DHT22;32569;51.762;8.564;2023-04-01T09:56:09;11.80;99.90
15231;DHT22;32569;51.762;8.564;2023-04-01T09:59:08;11.80;99.90
15231;DHT22;32569;51.762;8.564;2023-04-01T10:02:07;11.80;99.90
15231;DHT22;32569;51.762;8.564;2023-04-01T10:05:11;11.90;99.90
15231;DHT22;32569;51.762;8.564;2023-04-01T10:08:28;12.00;99.90
15231;DHT22;32569;51.762;8.564;2023-04-01T10:11:13;12.00;99.90
15231;DHT22;32569;51.762;8.564;2023-04-01T10:14:09;12.10;99.90
15231;DHT22;32569;51.762;8.564;2023-04-01T10:23:03;12.00;99.90
15231;DHT22;32569;51.762;8.564;2023-04-01T10:29:00;11.90;99.90
15231;DHT22;32569;51.762;8.564;2023-04-01T10:31:58;11.70;99.90
15231;DHT22;32569;51.762;8.564;2023-04-01T10:34:56;11.60;99.90
15231;DHT22;32569;51.762;8.564;2023-04-01T10:37:48;11.50;99.90
15231;DHT22;32569;51.762;8.564;2023-04-01T10:41:03;11.60;99.90
15231;DHT22;32569;51.762;8.564;2023-04-01T10:46:53;11.80;99.90
15231;DHT22;32569;51.762;8.564;2023-04-01T10:49:41;11.80;99.90
15231;DHT22;32569;51.762;8.564;2023-04-01T10:58:34;12.20;99.90
15231;DHT22;32569;51.762;8.564;2023-04-01T11:01:25;12.20;99.90
15231;DHT22;32569;51.762;8.564;2023-04-01T11:04:31;12.10;99.90
15231;DHT22;32569;51.762;8.564;2023-04-01T11:07:40;12.20;99.90
15231;DHT22;32569;51.762;8.564;2023-04-01T11:10:42;12.20;99.90
15231;DHT22;32569;51.762;8.564;2023-04-01T11:17:14;12.30;99.90
15231;DHT22;32569;51.762;8.564;2023-04-01T11:20:07;12.30;99.90
15231;DHT22;32569;51.762;8.564;2023-04-01T11:22:56;12.40;99.90
15231;DHT22;32569;51.762;8.564;2023-04-01T11:25:41;12.30;99.90
15231;DHT22;32569;51.762;8.564;2023-04-01T11:28:40;12.40;99.90
15231;DHT22;32569;51.762;8.564;2023-04-01T11:31:23;12.40;99.90
15231;DHT22;32569;51.762;8.564;2023-04-01T11:34:02;12.50;99.90
15231;DHT22;32569;51.762;8.564;2023-04-01T11:36:40;12.40;99.90
15231;DHT22;32569;51.762;8.564;2023-04-01T11:39:17;12.30;99.90
15231;DHT22;32569;51.762;8.564;2023-04-01T11:41:52;12.10;99.90
15231;DHT22;32569;51.762;8.564;2023-04-01T11:44:24;12.00;99.90
15231;DHT22;32569;51.762;8.564;2023-04-01T11:47:03;11.90;99.90
15231;DHT22;32569;51.762;8.564;2023-04-01T11:49:44;11.90;99.90
15231;DHT22;32569;51.762;8.564;2023-04-01T11:52:26;11.70;99.90
15231;DHT22;32569;51.762;8.564;2023-04-01T11:55:06;11.70;99.90
15231;DHT22;32569;51.762;8.564;2023-04-01T11:57:51;11.70;99.90
15231;DHT22;32569;51.762;8.564;2023-04-01T12:00:33;11.70;99.90
15231;DHT22;32569;51.762;8.564;2023-04-01T12:03:16;11.70;99.90
15231;DHT22;32569;51.762;8.564;2023-04-01T12:05:52;11.60;99.90
15231;DHT22;32569;51.762;8.564;2023-04-01T12:08:29;11.60;99.90
15231;DHT22;32569;51.762;8.564;2023-04-01T12:11:02;11.60;99.90
15231;DHT22;32569;51.762;8.564;2023-04-01T12:13:40;11.60;99.90
15231;DHT22;32569;51.762;8.564;2023-04-01T12:16:29;11.70;99.90
15231;DHT22;32569;51.762;8.564;2023-04-01T12:19:11;11.70;99.90
15231;DHT22;32569;51.762;8.564;2023-04-01T12:21:48;11.80;99.90
15231;DHT22;32569;51.762;8.564;2023-04-01T12:24:29;12.00;99.90
15231;DHT22;32569;51.762;8.564;2023-04-01T12:27:13;12.00;99.90
15231;DHT22;32569;51.762;8.564;2023-04-01T12:30:05;12.00;99.90
15231;DHT22;32569;51.762;8.564;2023-04-01T12:32:41;11.90;99.90
15231;DHT22;32569;51.762;8.564;2023-04-01T12:35:20;11.90;99.90
15231;DHT22;32569;51.762;8.564;2023-04-01T12:38:04;11.80;99.90
15231;DHT22;32569;51.762;8.564;2023-04-01T12:43:51;11.60;99.90
15231;DHT22;32569;51.762;8.564;2023-04-01T12:46:26;11.60;99.90
15231;DHT22;32569;51.762;8.564;2023-04-01T12:49:15;11.60;99.90
15231;DHT22;32569;51.762;8.564;2023-04-01T12:51:55;11.60;99.90
15231;DHT22;32569;51.762;8.564;2023-04-01T12:54:52;11.50;99.90
15231;DHT22;32569;51.762;8.564;2023-04-01T12:57:39;11.50;99.90
15231;DHT22;32569;51.762;8.564;2023-04-01T13:00:27;11.60;99.90
15231;DHT22;32569;51.762;8.564;2023-04-01T13:03:09;11.60;99.90
15231;DHT22;32569;51.762;8.564;2023-04-01T13:06:18;11.60;99.90
15231;DHT22;32569;51.762;8.564;2023-04-01T13:08:54;11.70;99.90
15231;DHT22;32569;51.762;8.564;2023-04-01T13:11:32;11.70;99.90
15231;DHT22;32569;51.762;8.564;2023-04-01T13:14:27;11.90;99.90
15231;DHT22;32569;51.762;8.564;2023-04-01T13:17:00;11.90;99.90
15231;DHT22;32569;51.762;8.564;2023-04-01T13:19:34;12.00;99.90
15231;DHT22;32569;51.762;8.564;2023-04-01T13:22:08;12.10;99.90
15231;DHT22;32569;51.762;8.564;2023-04-01T13:24:43;12.30;99.90
15231;DHT22;32569;51.762;8.564;2023-04-01T13:27:18;12.30;99.90
15231;DHT22;32569;51.762;8.564;2023-04-01T13:29:59;12.30;99.90
15231;DHT22;32569;51.762;8.564;2023-04-01T13:32:30;12.30;99.90
15231;DHT22;32569;51.762;8.564;2023-04-01T13:35:18;12.30;99.90
15231;DHT22;32569;51.762;8.564;2023-04-01T13:37:54;12.30;99.90
15231;DHT22;32569;51.762;8.564;2023-04-01T13:40:35;12.30;99.90
15231;DHT22;32569;51.762;8.564;2023-04-01T13:43:11;12.20;99.90
15231;DHT22;32569;51.762;8.564;2023-04-01T13:45:57;12.20;99.90
15231;DHT22;32569;51.762;8.564;2023-04-01T13:48:52;12.10;99.90
15231;DHT22;32569;51.762;8.564;2023-04-01T13:51:50;12.20;99.90
15231;DHT22;32569;51.762;8.564;2023-04-01T13:54:32;12.20;99.90
15231;DHT22;32569;51.762;8.564;2023-04-01T13:57:15;12.20;99.90
15231;DHT22;32569;51.762;8.564;2023-04-01T14:00:05;12.10;99.90
15231;DHT22;32569;51.762;8.564;2023-04-01T14:03:10;12.00;99.90
15231;DHT22;32569;51.762;8.564;2023-04-01T14:05:50;12.00;99.90
15231;DHT22;32569;51.762;8.564;2023-04-01T14:08:33;11.90;99.90
15231;DHT22;32569;51.762;8.564;2023-04-01T14:11:14;12.00;99.90
15231;DHT22;32569;51.762;8.564;2023-04-01T14:13:50;11.90;99.90
15231;DHT22;32569;51.762;8.564;2023-04-01T14:16:51;11.90;99.90
15231;DHT22;32569;51.762;8.564;2023-04-01T14:19:31;11.90;99.90
15231;DHT22;32569;51.762;8.564;2023-04-01T14:22:08;11.90;99.90
15231;DHT22;32569;51.762;8.564;2023-04-01T14:24:57;12.00;99.90
15231;DHT22;32569;51.762;8.564;2023-04-01T14:27:44;12.10;99.90
15231;DHT22;32569;51.762;8.564;2023-04-01T14:30:45;12.20;99.90
15231;DHT22;32569;51.762;8.564;2023-04-01T14:33:28;12.30;99.90
15231;DHT22;32569;51.762;8.564;2023-04-01T14:36:13;12.30;99.90
15231;DHT22;32569;51.762;8.564;2023-04-01T14:38:54;12.30;99.90
15231;DHT22;32569;51.762;8.564;2023-04-01T14:41:35;12.30;99.90
15231;DHT22;32569;51.762;8.564;2023-04-01T14:44:23;12.30;99.90
15231;DHT22;32569;51.762;8.564;2023-04-01T14:47:27;12.30;99.90
15231;DHT22;32569;51.762;8.564;2023-04-01T14:50:05;12.30;99.90
15231;DHT22;32569;51.762;8.564;2023-04-01T14:52:35;12.30;99.90
15231;DHT22;32569;51.762;8.564;2023-04-01T14:55:18;12.40;99.90
15231;DHT22;32569;51.762;8.564;2023-04-01T14:57:58;12.50;99.90
15231;DHT22;32569;51.762;8.564;2023-04-01T15:00:25;12.40;99.90
15231;DHT22;32569;51.762;8.564;2023-04-01T15:02:57;12.40;99.90
15231;DHT22;32569;51.762;8.564;2023-04-01T15:05:39;12.40;99.90
15231;DHT22;32569;51.762;8.564;2023-04-01T15:08:18;12.40;99.90
15231;DHT22;32569;51.762;8.564;2023-04-01T15:11:01;12.40;99.90
15231;DHT22;32569;51.762;8.564;2023-04-01T15:13:41;12.40;99.90
15231;DHT22;32569;51.762;8.564;2023-04-01T15:16:19;12.30;99.90
15231;DHT22;32569;51.762;8.564;2023-04-01T15:19:00;12.20;99.90
15231;DHT22;32569;51.762;8.564;2023-04-01T15:21:39;12.20;99.90
15231;DHT22;32569;51.762;8.564;2023-04-01T15:24:16;12.10;99.90
15231;DHT22;32569;51.762;8.564;2023-04-01T15:27:31;12.00;99.90
15231;DHT22;32569;51.762;8.564;2023-04-01T15:30:16;12.00;99.90
15231;DHT22;32569;51.762;8.564;2023-04-01T15:32:53;12.00;99.90
15231;DHT22;32569;51.762;8.564;2023-04-01T15:35:34;11.80;99.90
15231;DHT22;32569;51.762;8.564;2023-04-01T15:38:14;11.80;99.90
15231;DHT22;32569;51.762;8.564;2023-04-01T15:40:47;11.80;99.90
15231;DHT22;32569;51.762;8.564;2023-04-01T15:43:26;11.70;99.90
15231;DHT22;32569;51.762;8.564;2023-04-01T15:46:09;11.60;99.90
15231;DHT22;32569;51.762;8.564;2023-04-01T15:48:49;11.50;99.90
15231;DHT22;32569;51.762;8.564;2023-04-01T15:51:36;11.60;99.90
15231;DHT22;32569;51.762;8.564;2023-04-01T15:54:37;11.50;99.90
15231;DHT22;32569;51.762;8.564;2023-04-01T15:57:14;11.50;99.90
15231;DHT22;32569;51.762;8.564;2023-04-01T15:59:56;11.50;99.90
15231;DHT22;32569;51.762;8.564;2023-04-01T16:02:31;11.40;99.90
15231;DHT22;32569;51.762;8.564;2023-04-01T16:05:04;11.40;99.90
15231;DHT22;32569;51.762;8.564;2023-04-01T16:07:43;11.40;99.90
15231;DHT22;32569;51.762;8.564;2023-04-01T16:10:36;11.40;99.90
15231;DHT22;32569;51.762;8.564;2023-04-01T16:13:19;11.30;99.90
15231;DHT22;32569;51.762;8.564;2023-04-01T16:15:57;11.30;99.90
15231;DHT22;32569;51.762;8.564;2023-04-01T16:18:44;11.30;99.90
15231;DHT22;32569;51.762;8.564;2023-04-01T16:21:24;11.40;99.90
15231;DHT22;32569;51.762;8.564;2023-04-01T16:23:57;11.50;99.90
15231;DHT22;32569;51.762;8.564;2023-04-01T16:26:32;11.40;99.90
15231;DHT22;32569;51.762;8.564;2023-04-01T16:29:08;11.40;99.90
15231;DHT22;32569;51.762;8.564;2023-04-01T16:31:45;11.40;99.90
15231;DHT22;32569;51.762;8.564;2023-04-01T16:34:19;11.40;99.90
15231;DHT22;32569;51.762;8.564;2023-04-01T16:36:50;11.30;99.90
15231;DHT22;32569;51.762;8.564;2023-04-01T16:39:27;11.30;99.90
15231;DHT22;32569;51.762;8.564;2023-04-01T16:42:24;11.30;99.90
15231;DHT22;32569;51.762;8.564;2023-04-01T16:44:56;11.30;99.90
15231;DHT22;32569;51.762;8.564;2023-04-01T16:47:29;11.20;99.90
15231;DHT22;32569;51.762;8.564;2023-04-01T16:49:59;11.20;99.90
15231;DHT22;32569;51.762;8.564;2023-04-01T16:52:41;11.20;99.90
15231;DHT22;32569;51.762;8.564;2023-04-01T16:55:15;11.20;99.90
15231;DHT22;32569;51.762;8.564;2023-04-01T16:57:50;11.10;99.90
15231;DHT22;32569;51.762;8.564;2023-04-01T17:00:25;11.10;99.90
15231;DHT22;32569;51.762;8.564;2023-04-01T17:03:02;11.10;99.90
15231;DHT22;32569;51.762;8.564;2023-04-01T17:05:42;11.10;99.90
15231;DHT22;32569;51.762;8.564;2023-04-01T17:08:25;11.10;99.90
15231;DHT22;32569;51.762;8.564;2023-04-01T17:11:02;11.00;99.90
15231;DHT22;32569;51.762;8.564;2023-04-01T17:13:41;11.00;99.90
15231;DHT22;32569;51.762;8.564;2023-04-01T17:16:49;10.90;99.90